KISW

Alexander Field South Wood County Airport

Wisconsin Rapids, Wisconsin, USA
METAR KISW 230954Z AUTO 19004KT 6SM -FZRA BR OVC006 00/M02 A3008 RMK AO2 UPB05E31FZRAE05B31 CIG 004V010 SLP200 P0008 I1005 T00001017
Observed Flight Rules
Feb-23 @ 09:54 UTC (38 minutes ago) Instrument Flight Rules
Wind Visibility Clouds Conditions
190° at 4 knots 6 miles
  • Overcast at 600' AGL
  • Light Freezing
  • Light Rain
  • Mist
Temperatures Readings Precipitation
Current 0°C / 32°F
Dewpoint -2°C / 28°F
Humidity 87%
Altimeter 30.08" Hg
Pressure 1020 hPa
Elevation 307
Current Rain 0.08
METAR KISW 230954Z AUTO 19004KT 6SM -FZRA BR OVC006 00/M02 A3008 RMK AO2 UPB05E31FZRAE05B31 CIG 004V010 SLP200 P0008 I1005 T00001017
Observed Flight Rules
Feb-23 @ 09:54 UTC
(38 minutes ago)
IFR
Wind Visibility
190° at 4 knots 6 miles
Clouds
  • Overcast at 600' AGL
Conditions
  • Light Freezing
  • Light Rain
  • Mist
Temperature Dewpoint
0°C / 32°F -2°C / 28°F
Humidity Altimeter Pressure
87% 30.08" Hg 1020 hPa
Current Rain
0.08